Time;durP1;ratioP1;P1;durP2;ratioP2;P2;SDS_P1;SDS_P2;PMS_P1;PMS_P2;Temp;Humidity;BMP_temperature;BMP_pressure;BME280_temperature;BME280_humidity;BME280_pressure;Samples;Min_cycle;Max_cycle;Signal;HPM_P1;HPM_P2
2024/03/04 00:01:44;;;;;;;;;;;;;;;6.33;100.00;95162.59;5063737;28;20127;-80
2024/03/04 00:04:09;;;;;;;;;;;;;;;6.34;100.00;95177.19;5064155;28;19954;-80
2024/03/04 00:06:35;;;;;;;;;;;;;;;6.32;100.00;95176.63;5064234;28;19936;-80
2024/03/04 00:09:01;;;;;;;;;;;;;;;6.28;100.00;95178.91;5066646;28;20282;-80
2024/03/04 00:11:27;;;;;;;;;;;;;;;6.25;100.00;95182.72;5050095;28;20105;-79
2024/03/04 00:13:53;;;;;;;;;;;;;;;6.26;100.00;95184.31;5068542;28;19941;-80
2024/03/04 00:16:18;;;;;;;;;;;;;;;6.27;100.00;95190.31;5067687;28;19949;-74
2024/03/04 00:18:44;;;;;;;;;;;;;;;6.28;100.00;95189.31;5068445;28;19937;-77
2024/03/04 00:21:10;;;;;;;;;;;;;;;6.27;100.00;95198.13;5050375;28;19931;-77
2024/03/04 00:23:36;;;;;;;;;;;;;;;6.27;100.00;95201.50;5068220;28;19951;-77
2024/03/04 00:26:05;;;;;;;;;;;;;;;6.26;100.00;95205.16;5067503;28;19939;-77
2024/03/04 00:28:31;;;;;;;;;;;;;;;6.27;100.00;95198.13;5067962;28;19936;-78
2024/03/04 00:30:57;;;;;;;;;;;;;;;6.26;100.00;95201.75;5067434;28;19937;-78
2024/03/04 00:33:23;;;;;;;;;;;;;;;6.23;100.00;95202.97;5067727;28;19949;-71
2024/03/04 00:35:49;;;;;;;;;;;;;;;6.22;100.00;95211.81;5067293;28;20221;-78
2024/03/04 00:38:15;;;;;;;;;;;;;;;6.22;100.00;95218.84;5067150;28;20266;-74
2024/03/04 00:40:40;;;;;;;;;;;;;;;6.22;100.00;95216.22;5049551;28;19940;-74
2024/03/04 00:43:06;;;;;;;;;;;;;;;6.19;100.00;95211.44;5067867;28;19958;-74
2024/03/04 00:45:32;;;;;;;;;;;;;;;6.17;100.00;95214.25;5067915;28;19937;-74
2024/03/04 00:47:58;;;;;;;;;;;;;;;6.16;100.00;95212.69;5067289;28;19930;-74
2024/03/04 00:50:24;;;;;;;;;;;;;;;6.14;100.00;95224.34;5049341;28;20242;-74
2024/03/04 00:52:50;;;;;;;;;;;;;;;6.10;100.00;95216.16;5067489;28;19947;-73
2024/03/04 00:55:17;;;;;;;;;;;;;;;6.07;100.00;95225.22;5066985;28;20001;-71
2024/03/04 00:57:43;;;;;;;;;;;;;;;6.02;100.00;95221.66;5050130;28;19936;-71
2024/03/04 01:00:09;;;;;;;;;;;;;;;5.99;100.00;95232.53;5067192;28;20133;-71
2024/03/04 01:02:35;;;;;;;;;;;;;;;5.96;100.00;95241.53;5032417;28;19945;-72
2024/03/04 01:05:02;;;;;;;;;;;;;;;5.96;100.00;95246.75;5066826;28;20046;-71
2024/03/04 01:07:28;;;;;;;;;;;;;;;5.95;100.00;95249.59;5067224;28;19949;-71
2024/03/04 01:09:56;;;;;;;;;;;;;;;5.95;100.00;95247.00;5066857;28;20244;-71
2024/03/04 01:12:22;;;;;;;;;;;;;;;5.92;100.00;95255.97;5032277;28;19938;-74
2024/03/04 01:14:48;;;;;;;;;;;;;;;5.93;100.00;95249.78;5066605;28;19956;-80
2024/03/04 01:17:16;;;;;;;;;;;;;;;5.92;100.00;95257.78;5048858;28;20141;-80
2024/03/04 01:19:45;;;;;;;;;;;;;;;5.90;100.00;95263.22;5049006;28;19937;-79
2024/03/04 01:22:17;;;;;;;;;;;;;;;5.87;100.00;95264.44;5067314;28;19934;-80
2024/03/04 01:24:43;;;;;;;;;;;;;;;5.84;100.00;95270.09;5066921;28;19955;-80
2024/03/04 01:27:13;;;;;;;;;;;;;;;5.82;100.00;95292.13;5066404;28;19942;-80
2024/03/04 01:29:41;;;;;;;;;;;;;;;5.79;100.00;95275.13;5066776;28;20234;-77
2024/03/04 01:32:09;;;;;;;;;;;;;;;5.79;100.00;95274.34;5066859;28;19939;-69
2024/03/04 01:34:38;;;;;;;;;;;;;;;5.80;100.00;95281.16;5049140;28;19946;-69
2024/03/04 01:37:08;;;;;;;;;;;;;;;5.81;100.00;95282.72;5065972;28;19965;-69
2024/03/04 01:39:34;;;;;;;;;;;;;;;5.81;100.00;95278.31;5066139;28;20123;-69
2024/03/04 01:42:01;;;;;;;;;;;;;;;5.83;100.00;95285.91;5066118;28;19946;-69
2024/03/04 01:44:31;;;;;;;;;;;;;;;5.83;100.00;95293.72;5066481;28;19973;-69
2024/03/04 01:46:57;;;;;;;;;;;;;;;5.82;100.00;95290.31;5066242;28;19934;-69
2024/03/04 01:49:22;;;;;;;;;;;;;;;5.79;100.00;95293.34;5066467;28;19950;-68
2024/03/04 01:51:48;;;;;;;;;;;;;;;5.76;100.00;95291.19;5048108;28;19985;-72
2024/03/04 01:54:14;;;;;;;;;;;;;;;5.74;100.00;95295.81;5066708;28;19972;-71
2024/03/04 01:56:40;;;;;;;;;;;;;;;5.73;100.00;95301.22;5065789;28;20286;-73
2024/03/04 01:59:06;;;;;;;;;;;;;;;5.70;100.00;95290.22;5066342;28;19975;-72
2024/03/04 02:01:32;;;;;;;;;;;;;;;5.68;100.00;95307.84;5032240;28;19940;-73
2024/03/04 02:03:58;;;;;;;;;;;;;;;5.67;100.00;95303.66;5065530;28;19950;-72
2024/03/04 02:06:24;;;;;;;;;;;;;;;5.65;100.00;95310.91;5065669;28;20227;-68
2024/03/04 02:08:50;;;;;;;;;;;;;;;5.64;100.00;95316.31;5065561;28;20155;-77
2024/03/04 02:11:16;;;;;;;;;;;;;;;5.60;100.00;95317.75;5066349;28;20002;-77
2024/03/04 02:13:42;;;;;;;;;;;;;;;5.57;100.00;95313.78;5065486;28;19980;-78
2024/03/04 02:16:08;;;;;;;;;;;;;;;5.54;100.00;95324.59;5065458;28;19937;-77
2024/03/04 02:18:34;;;;;;;;;;;;;;;5.53;100.00;95324.81;5065654;28;19934;-78
2024/03/04 02:21:01;;;;;;;;;;;;;;;5.49;100.00;95327.81;5065359;28;20106;-78
2024/03/04 02:23:27;;;;;;;;;;;;;;;5.49;100.00;95325.22;5065083;28;19969;-74
2024/03/04 02:25:57;;;;;;;;;;;;;;;5.48;100.00;95331.44;5031660;28;19955;-74
2024/03/04 02:28:25;;;;;;;;;;;;;;;5.47;100.00;95323.84;5048294;28;19944;-77
2024/03/04 02:30:51;;;;;;;;;;;;;;;5.45;100.00;95326.66;5064699;28;19941;-77
2024/03/04 02:33:22;;;;;;;;;;;;;;;5.42;100.00;95326.31;5065048;28;19934;-79
2024/03/04 02:35:50;;;;;;;;;;;;;;;5.40;100.00;95342.13;5065374;28;19938;-77
2024/03/04 02:38:17;;;;;;;;;;;;;;;5.36;100.00;95338.34;5064863;28;19968;-78
2024/03/04 02:40:43;;;;;;;;;;;;;;;5.35;100.00;95341.94;5064908;28;19937;-80
2024/03/04 02:43:11;;;;;;;;;;;;;;;5.33;100.00;95340.56;5064837;28;19972;-80
2024/03/04 02:45:38;;;;;;;;;;;;;;;5.32;100.00;95349.38;5065052;28;19939;-73
2024/03/04 02:48:04;;;;;;;;;;;;;;;5.30;100.00;95362.59;5064793;28;19930;-71
2024/03/04 02:50:31;;;;;;;;;;;;;;;5.29;100.00;95351.41;5065292;28;19937;-71
2024/03/04 02:52:57;;;;;;;;;;;;;;;5.29;100.00;95348.78;5064723;28;19945;-71
2024/03/04 02:55:23;;;;;;;;;;;;;;;5.28;100.00;95349.00;5065527;28;19997;-71
2024/03/04 02:57:48;;;;;;;;;;;;;;;5.27;100.00;95345.63;5065136;28;19944;-71
2024/03/04 03:00:14;;;;;;;;;;;;;;;5.26;100.00;95344.00;5064622;28;19941;-71
2024/03/04 03:02:40;;;;;;;;;;;;;;;5.24;100.00;95356.41;5064542;28;19944;-79
2024/03/04 03:05:06;;;;;;;;;;;;;;;5.22;100.00;95360.25;5064468;28;20048;-71
2024/03/04 03:07:32;;;;;;;;;;;;;;;5.20;100.00;95365.63;5064771;28;19938;-71
2024/03/04 03:09:58;;;;;;;;;;;;;;;5.20;100.00;95372.66;5064397;28;20264;-71
2024/03/04 03:12:24;;;;;;;;;;;;;;;5.20;100.00;95381.22;5046746;28;19936;-72
2024/03/04 03:14:50;;;;;;;;;;;;;;;5.19;100.00;95379.66;5064825;28;19958;-71
2024/03/04 03:17:19;;;;;;;;;;;;;;;5.19;100.00;95389.25;5046627;28;19944;-71
2024/03/04 03:19:44;;;;;;;;;;;;;;;5.20;100.00;95393.44;5064798;28;19937;-69
2024/03/04 03:22:10;;;;;;;;;;;;;;;5.21;100.00;95406.22;5064750;28;19943;-69
2024/03/04 03:24:36;;;;;;;;;;;;;;;5.23;100.00;95400.84;5064617;28;19959;-69
2024/03/04 03:27:02;;;;;;;;;;;;;;;5.25;100.00;95415.19;5064410;28;19938;-69
2024/03/04 03:29:28;;;;;;;;;;;;;;;5.28;100.00;95417.38;5064109;28;19934;-68
2024/03/04 03:31:54;;;;;;;;;;;;;;;5.32;100.00;95419.56;5064588;28;19936;-69
2024/03/04 03:34:20;;;;;;;;;;;;;;;5.35;100.00;95424.34;5064021;28;19960;-68
2024/03/04 03:36:45;;;;;;;;;;;;;;;5.38;100.00;95421.34;5064183;28;20312;-69
2024/03/04 03:39:12;;;;;;;;;;;;;;;5.44;100.00;95417.91;5046314;28;19943;-71
2024/03/04 03:41:38;;;;;;;;;;;;;;;5.47;100.00;95427.84;5063762;28;19933;-83
2024/03/04 03:44:05;;;;;;;;;;;;;;;5.50;100.00;95419.63;5063865;28;19951;-82
2024/03/04 03:46:30;;;;;;;;;;;;;;;5.51;100.00;95423.03;5046687;28;20105;-76
2024/03/04 03:48:56;;;;;;;;;;;;;;;5.51;100.00;95430.84;5046711;28;19941;-80
2024/03/04 03:51:22;;;;;;;;;;;;;;;5.54;100.00;95436.41;5064638;28;19945;-80
2024/03/04 03:53:48;;;;;;;;;;;;;;;5.58;100.00;95431.59;5046829;28;20201;-81
2024/03/04 03:56:14;;;;;;;;;;;;;;;5.62;100.00;95440.56;5063820;28;20008;-80
2024/03/04 03:58:40;;;;;;;;;;;;;;;5.65;100.00;95446.13;5063793;28;19934;-77
2024/03/04 04:01:06;;;;;;;;;;;;;;;5.66;100.00;95442.50;5063736;28;19944;-77
2024/03/04 04:03:33;;;;;;;;;;;;;;;5.69;100.00;95449.91;5063973;28;19951;-77
2024/03/04 04:05:59;;;;;;;;;;;;;;;5.71;100.00;95460.09;5063672;28;20228;-77
2024/03/04 04:08:25;;;;;;;;;;;;;;;5.77;100.00;95463.66;5064412;28;19955;-77
2024/03/04 04:10:51;;;;;;;;;;;;;;;5.78;100.00;95479.06;5063653;28;19992;-77
2024/03/04 04:13:18;;;;;;;;;;;;;;;5.81;100.00;95483.81;5064459;28;19988;-77
2024/03/04 04:15:44;;;;;;;;;;;;;;;5.82;100.00;95485.44;5063635;28;19938;-72
2024/03/04 04:18:10;;;;;;;;;;;;;;;5.86;100.00;95491.81;5046596;28;20238;-80
2024/03/04 04:20:36;;;;;;;;;;;;;;;5.88;100.00;95491.59;5062613;28;19938;-80
2024/03/04 04:23:02;;;;;;;;;;;;;;;5.90;100.00;95498.19;5046658;28;19933;-80
2024/03/04 04:25:28;;;;;;;;;;;;;;;5.92;100.00;95499.75;5045827;28;19942;-81
2024/03/04 04:27:54;;;;;;;;;;;;;;;5.94;100.00;95498.53;5063533;28;19937;-82
2024/03/04 04:30:20;;;;;;;;;;;;;;;5.95;100.00;95510.59;5063486;28;19940;-81
2024/03/04 04:32:47;;;;;;;;;;;;;;;5.96;100.00;95512.16;5064246;28;19937;-82
2024/03/04 04:35:13;;;;;;;;;;;;;;;5.98;100.00;95514.56;5063447;28;20144;-73
2024/03/04 04:37:40;;;;;;;;;;;;;;;5.99;100.00;95518.78;5045674;28;19974;-69
2024/03/04 04:40:08;;;;;;;;;;;;;;;6.00;100.00;95521.16;5045696;28;19950;-69
2024/03/04 04:42:34;;;;;;;;;;;;;;;6.03;100.00;95525.16;5063418;28;20227;-68
2024/03/04 04:45:00;;;;;;;;;;;;;;;6.03;100.00;95525.94;5063611;28;20016;-68
2024/03/04 04:47:26;;;;;;;;;;;;;;;6.05;100.00;95534.34;5046080;28;19989;-68
2024/03/04 04:49:52;;;;;;;;;;;;;;;6.07;100.00;95536.75;5063247;28;20221;-69
2024/03/04 04:52:18;;;;;;;;;;;;;;;6.08;100.00;95533.91;5063515;28;20218;-74
2024/03/04 04:54:44;;;;;;;;;;;;;;;6.09;100.00;95532.13;5031328;28;19950;-81
2024/03/04 04:57:10;;;;;;;;;;;;;;;6.10;100.00;95537.09;5033490;28;19942;-78
2024/03/04 04:59:36;;;;;;;;;;;;;;;6.12;100.00;95541.31;5066882;28;19933;-79
2024/03/04 05:02:02;;;;;;;;;;;;;;;6.14;100.00;95547.09;5066866;28;19940;-80
2024/03/04 05:04:28;;;;;;;;;;;;;;;6.16;100.00;95560.69;5067456;28;19956;-80
2024/03/04 05:06:54;;;;;;;;;;;;;;;6.17;100.00;95555.25;5066710;28;19939;-80
2024/03/04 05:09:19;;;;;;;;;;;;;;;6.19;100.00;95562.88;5066835;28;19953;-72
2024/03/04 05:11:45;;;;;;;;;;;;;;;6.19;100.00;95568.06;5066711;28;19969;-74
2024/03/04 05:14:12;;;;;;;;;;;;;;;6.20;100.00;95564.47;5032339;28;19943;-71
2024/03/04 05:16:38;;;;;;;;;;;;;;;6.21;100.00;95579.88;5049420;28;20108;-72
2024/03/04 05:19:04;;;;;;;;;;;;;;;6.22;100.00;95584.06;5032175;28;19938;-72
2024/03/04 05:21:30;;;;;;;;;;;;;;;6.23;100.00;95582.25;5032098;28;19946;-72
2024/03/04 05:23:56;;;;;;;;;;;;;;;6.25;100.00;95588.06;5066188;28;19956;-72
2024/03/04 05:26:22;;;;;;;;;;;;;;;6.26;100.00;95592.28;5066756;28;19938;-72
2024/03/04 05:28:48;;;;;;;;;;;;;;;6.28;100.00;95579.84;5048950;28;20118;-72
2024/03/04 05:31:13;;;;;;;;;;;;;;;6.30;100.00;95583.81;5066652;28;19985;-71
2024/03/04 05:33:42;;;;;;;;;;;;;;;6.32;100.00;95596.63;5049060;28;19947;-72
2024/03/04 05:36:10;;;;;;;;;;;;;;;6.34;100.00;95591.19;5048033;28;19954;-71
2024/03/04 05:38:36;;;;;;;;;;;;;;;6.35;100.00;95600.63;5048798;28;20111;-73
2024/03/04 05:41:04;;;;;;;;;;;;;;;6.37;100.00;95614.22;5066460;28;19941;-72
2024/03/04 05:43:30;;;;;;;;;;;;;;;6.39;100.00;95614.81;5066795;28;19939;-72
2024/03/04 05:45:56;;;;;;;;;;;;;;;6.39;100.00;95623.41;5065993;28;20006;-72
2024/03/04 05:48:22;;;;;;;;;;;;;;;6.40;100.00;95619.78;5048222;28;19932;-74
2024/03/04 05:50:48;;;;;;;;;;;;;;;6.42;100.00;95625.56;5065782;28;20005;-71
2024/03/04 05:53:15;;;;;;;;;;;;;;;6.47;100.00;95628.38;5065794;28;19937;-71
2024/03/04 05:55:42;;;;;;;;;;;;;;;6.52;100.00;95621.72;5065857;28;19937;-72
2024/03/04 05:58:09;;;;;;;;;;;;;;;6.54;100.00;95622.31;5065857;28;19944;-72
2024/03/04 06:00:35;;;;;;;;;;;;;;;6.55;100.00;95635.13;5066566;28;19943;-71
2024/03/04 06:03:01;;;;;;;;;;;;;;;6.57;100.00;95637.50;5065752;28;19930;-72
2024/03/04 06:05:27;;;;;;;;;;;;;;;6.56;100.00;95626.28;5066114;28;19953;-70
2024/03/04 06:07:57;;;;;;;;;;;;;;;6.56;100.00;95628.09;5047770;28;19965;-77
2024/03/04 06:10:23;;;;;;;;;;;;;;;6.56;100.00;95646.34;5047755;28;19939;-77
2024/03/04 06:12:49;;;;;;;;;;;;;;;6.57;100.00;95640.09;5066066;28;20003;-77
2024/03/04 06:15:15;;;;;;;;;;;;;;;6.56;100.00;95647.13;5065492;28;20218;-78
2024/03/04 06:17:41;;;;;;;;;;;;;;;6.57;100.00;95650.53;5065400;28;20121;-78
2024/03/04 06:20:09;;;;;;;;;;;;;;;6.58;100.00;95652.94;5066160;28;19936;-78
2024/03/04 06:22:36;;;;;;;;;;;;;;;6.59;100.00;95656.31;5065375;28;19936;-72
2024/03/04 06:25:02;;;;;;;;;;;;;;;6.60;100.00;95656.13;5065236;28;19943;-79
2024/03/04 06:27:28;;;;;;;;;;;;;;;6.60;100.00;95663.94;5065523;28;19994;-72
2024/03/04 06:29:54;;;;;;;;;;;;;;;6.61;100.00;95664.72;5065978;28;19931;-71
2024/03/04 06:32:20;;;;;;;;;;;;;;;6.61;100.00;95662.91;5065185;28;20100;-72
2024/03/04 06:34:46;;;;;;;;;;;;;;;6.62;100.00;95659.31;5065621;28;19988;-71
2024/03/04 06:37:16;;;;;;;;;;;;;;;6.64;100.00;95665.09;5047416;28;20276;-71
2024/03/04 06:39:44;;;;;;;;;;;;;;;6.64;100.00;95667.72;5065822;28;19947;-72
2024/03/04 06:42:10;;;;;;;;;;;;;;;6.65;100.00;95671.91;5065785;28;20087;-71
2024/03/04 06:44:36;;;;;;;;;;;;;;;6.68;100.00;95678.50;5047059;28;19964;-70
2024/03/04 06:47:02;;;;;;;;;;;;;;;6.69;100.00;95673.06;5047771;28;19941;-71
2024/03/04 06:49:28;;;;;;;;;;;;;;;6.72;100.00;95679.69;5065656;28;19935;-71
2024/03/04 06:51:54;;;;;;;;;;;;;;;6.74;100.00;95685.47;5064773;28;19983;-71
2024/03/04 06:54:19;;;;;;;;;;;;;;;6.75;100.00;95694.09;5065568;28;20205;-70
2024/03/04 06:56:45;;;;;;;;;;;;;;;6.75;100.00;95692.28;5065227;28;19966;-71
2024/03/04 06:59:11;;;;;;;;;;;;;;;6.77;100.00;95699.88;5065205;28;19933;-79
2024/03/04 07:01:37;;;;;;;;;;;;;;;6.79;100.00;95705.69;5046976;28;19980;-75
2024/03/04 07:04:06;;;;;;;;;;;;;;;6.82;100.00;95700.84;5063723;28;21234;-80
2024/03/04 07:06:32;;;;;;;;;;;;;;;6.84;100.00;95696.19;5064543;28;19938;-80
2024/03/04 07:08:57;;;;;;;;;;;;;;;6.88;100.00;95704.41;5046756;28;19959;-80
2024/03/04 07:11:24;;;;;;;;;;;;;;;6.91;100.00;95698.78;5065252;28;19967;-80
2024/03/04 07:13:50;;;;;;;;;;;;;;;6.92;100.00;95695.16;5046584;28;19968;-80
2024/03/04 07:16:16;;;;;;;;;;;;;;;6.95;100.00;95702.56;5063849;28;20121;-80
2024/03/04 07:18:42;;;;;;;;;;;;;;;6.97;100.00;95704.94;5064366;28;19932;-72
2024/03/04 07:21:12;;;;;;;;;;;;;;;6.98;100.00;95709.94;5064265;28;20246;-79
2024/03/04 07:23:39;;;;;;;;;;;;;;;6.97;100.00;95713.56;5064255;28;19940;-79
2024/03/04 07:26:06;;;;;;;;;;;;;;;6.95;100.00;95702.56;5064731;28;19937;-80
2024/03/04 07:28:32;;;;;;;;;;;;;;;6.95;100.00;95717.38;5064365;28;19938;-79
2024/03/04 07:30:58;;;;;;;;;;;;;;;6.90;100.00;95720.63;5064072;28;19935;-79
2024/03/04 07:33:24;;;;;;;;;;;;;;;6.88;100.00;95718.22;5047236;28;19946;-80
2024/03/04 07:35:50;;;;;;;;;;;;;;;6.90;100.00;95718.03;5064035;28;19970;-79
2024/03/04 07:38:16;;;;;;;;;;;;;;;6.90;100.00;95731.84;5046218;28;19967;-73
2024/03/04 07:40:42;;;;;;;;;;;;;;;6.87;100.00;95726.28;5064753;28;19982;-70
2024/03/04 07:43:08;;;;;;;;;;;;;;;6.87;100.00;95732.28;5064469;28;19936;-69
2024/03/04 07:45:33;;;;;;;;;;;;;;;6.86;100.00;95733.28;5030370;28;19959;-69
2024/03/04 07:47:59;;;;;;;;;;;;;;;6.90;100.00;95733.66;5063859;28;19937;-70
2024/03/04 07:50:25;;;;;;;;;;;;;;;6.91;100.00;95743.88;5064366;28;19934;-70
2024/03/04 07:52:51;;;;;;;;;;;;;;;6.94;100.00;95734.03;5063791;28;19940;-70
2024/03/04 07:55:17;;;;;;;;;;;;;;;6.96;100.00;95743.25;5064052;28;19960;-74
2024/03/04 07:57:43;;;;;;;;;;;;;;;6.99;100.00;95742.84;5064196;28;19982;-74
2024/03/04 08:00:15;;;;;;;;;;;;;;;7.00;100.00;95744.41;5045365;28;20112;-75
2024/03/04 08:02:42;;;;;;;;;;;;;;;7.03;100.00;95756.22;5063994;28;19949;-75
2024/03/04 08:05:08;;;;;;;;;;;;;;;7.03;100.00;95758.81;5063547;28;19956;-74
2024/03/04 08:07:35;;;;;;;;;;;;;;;7.00;100.00;95757.44;5063608;28;19939;-75
2024/03/04 08:10:01;;;;;;;;;;;;;;;6.99;100.00;95750.66;5063639;28;20122;-75
2024/03/04 08:12:27;;;;;;;;;;;;;;;7.00;100.00;95759.25;5046504;28;19937;-74
2024/03/04 08:14:52;;;;;;;;;;;;;;;7.01;100.00;95763.47;5064407;28;19936;-75
2024/03/04 08:17:18;;;;;;;;;;;;;;;6.99;100.00;95766.28;5046146;28;19949;-74
2024/03/04 08:19:44;;;;;;;;;;;;;;;6.99;100.00;95768.06;5063518;28;19937;-74
2024/03/04 08:22:10;;;;;;;;;;;;;;;6.95;100.00;95775.53;5064330;28;19984;-75
2024/03/04 08:24:36;;;;;;;;;;;;;;;6.93;100.00;95776.75;5045684;28;19987;-74
2024/03/04 08:27:02;;;;;;;;;;;;;;;6.94;100.00;95771.31;5046530;28;20208;-74
2024/03/04 08:29:28;;;;;;;;;;;;;;;6.97;100.00;95781.34;5047807;28;20124;-75
2024/03/04 08:31:54;;;;;;;;;;;;;;;6.95;100.00;95783.38;5067462;28;19943;-72
2024/03/04 08:34:20;;;;;;;;;;;;;;;6.93;100.00;95776.75;5067441;28;20114;-73
2024/03/04 08:36:47;;;;;;;;;;;;;;;6.90;100.00;95783.97;5049518;28;19969;-74
2024/03/04 08:39:13;;;;;;;;;;;;;;;6.91;100.00;95785.59;5067233;28;19962;-74
2024/03/04 08:41:43;;;;;;;;;;;;;;;6.95;100.00;95788.59;5067316;28;19981;-75
2024/03/04 08:44:09;;;;;;;;;;;;;;;7.00;100.00;95786.13;5049473;28;19939;-74
2024/03/04 08:46:35;;;;;;;;;;;;;;;7.08;100.00;95788.47;5049447;28;19938;-73
2024/03/04 08:49:01;;;;;;;;;;;;;;;7.16;100.00;95795.25;5067172;28;19977;-73
2024/03/04 08:51:27;;;;;;;;;;;;;;;7.15;100.00;95796.25;5067126;28;20220;-76
2024/03/04 08:53:52;;;;;;;;;;;;;;;7.18;100.00;95805.44;5067051;28;19937;-72
2024/03/04 08:56:18;;;;;;;;;;;;;;;7.20;100.00;95806.84;5049551;28;19936;-71
2024/03/04 08:58:44;;;;;;;;;;;;;;;7.23;100.00;95803.00;5067255;28;20001;-72
2024/03/04 09:01:10;;;;;;;;;;;;;;;7.27;100.00;95802.38;5049366;28;19957;-71
2024/03/04 09:03:38;;;;;;;;;;;;;;;7.33;100.00;95808.56;5066847;28;19956;-71
2024/03/04 09:06:04;;;;;;;;;;;;;;;7.39;100.00;95817.31;5067018;28;19957;-72
2024/03/04 09:08:31;;;;;;;;;;;;;;;7.41;100.00;95803.09;5066770;28;20123;-70
2024/03/04 09:10:56;;;;;;;;;;;;;;;7.46;100.00;95805.03;5048983;28;19942;-72
2024/03/04 09:13:22;;;;;;;;;;;;;;;7.46;100.00;95810.25;5049033;28;19943;-79
2024/03/04 09:15:48;;;;;;;;;;;;;;;7.43;100.00;95811.50;5049502;28;19940;-79
2024/03/04 09:18:14;;;;;;;;;;;;;;;7.43;100.00;95813.28;5066604;28;19935;-79
2024/03/04 09:20:40;;;;;;;;;;;;;;;7.43;100.00;95814.09;5066831;28;19939;-79
2024/03/04 09:23:07;;;;;;;;;;;;;;;7.42;100.00;95812.50;5067311;28;20080;-79
2024/03/04 09:25:33;;;;;;;;;;;;;;;7.43;100.00;95811.50;5066914;28;20143;-79
2024/03/04 09:27:58;;;;;;;;;;;;;;;7.45;100.00;95816.47;5066410;28;19978;-77
2024/03/04 09:30:25;;;;;;;;;;;;;;;7.48;100.00;95813.47;5048695;28;19944;-76
2024/03/04 09:32:51;;;;;;;;;;;;;;;7.52;100.00;95817.25;5066789;28;19940;-76
2024/03/04 09:35:16;;;;;;;;;;;;;;;7.55;100.00;95813.41;5066813;28;19940;-76
2024/03/04 09:37:44;;;;;;;;;;;;;;;7.62;100.00;95817.56;5066027;28;20256;-77
2024/03/04 09:40:10;;;;;;;;;;;;;;;7.69;100.00;95807.84;5065772;28;20130;-76
2024/03/04 09:42:37;;;;;;;;;;;;;;;7.81;100.00;95828.00;5066136;28;20134;-76
2024/03/04 09:45:03;;;;;;;;;;;;;;;7.86;100.00;95812.50;5066024;28;19958;-73
2024/03/04 09:47:29;;;;;;;;;;;;;;;7.93;100.00;95816.63;5048027;28;20252;-76
2024/03/04 09:49:56;;;;;;;;;;;;;;;7.98;100.00;95820.41;5066040;28;19937;-77
2024/03/04 09:52:22;;;;;;;;;;;;;;;7.97;100.00;95811.78;5048235;28;19941;-76
2024/03/04 09:54:49;;;;;;;;;;;;;;;8.00;100.00;95813.97;5066426;28;20222;-76
2024/03/04 09:57:15;;;;;;;;;;;;;;;8.03;100.00;95831.81;5048411;28;19944;-76
2024/03/04 09:59:42;;;;;;;;;;;;;;;8.01;100.00;95820.00;5065795;28;19949;-76
2024/03/04 10:02:10;;;;;;;;;;;;;;;7.98;100.00;95826.44;5066296;28;19954;-77
2024/03/04 10:04:38;;;;;;;;;;;;;;;7.95;100.00;95819.03;5065669;28;19954;-78
2024/03/04 10:07:04;;;;;;;;;;;;;;;7.97;100.00;95827.44;5065932;28;19952;-70
2024/03/04 10:09:30;;;;;;;;;;;;;;;8.01;100.00;95820.78;5047727;28;20032;-70
2024/03/04 10:11:57;;;;;;;;;;;;;;;8.06;100.00;95814.91;5065588;28;19989;-70
2024/03/04 10:14:24;;;;;;;;;;;;;;;8.10;100.00;95822.06;5048217;28;19940;-70
2024/03/04 10:16:50;;;;;;;;;;;;;;;8.11;100.00;95817.69;5066309;28;19937;-70
2024/03/04 10:19:19;;;;;;;;;;;;;;;8.13;100.00;95826.09;5065459;28;20127;-70
2024/03/04 10:21:46;;;;;;;;;;;;;;;8.11;100.00;95835.97;5066209;28;20085;-70
2024/03/04 10:24:12;;;;;;;;;;;;;;;8.11;100.00;95828.13;5065434;28;19937;-72
2024/03/04 10:26:41;;;;;;;;;;;;;;;8.14;100.00;95822.44;5031040;28;19987;-69
2024/03/04 10:29:07;;;;;;;;;;;;;;;8.17;100.00;95829.88;5065202;28;19934;-70
2024/03/04 10:31:40;;;;;;;;;;;;;;;8.16;100.00;95838.72;5065745;28;19938;-70
2024/03/04 10:34:06;;;;;;;;;;;;;;;8.11;100.00;95833.34;5065716;28;19938;-69
2024/03/04 10:36:32;;;;;;;;;;;;;;;8.06;100.00;95841.00;5065502;28;19966;-70
2024/03/04 10:39:00;;;;;;;;;;;;;;;8.03;100.00;95844.88;5065330;28;19939;-70
2024/03/04 10:41:30;;;;;;;;;;;;;;;8.01;100.00;95838.28;5065036;28;19938;-72
2024/03/04 10:43:56;;;;;;;;;;;;;;;8.00;100.00;95837.47;5064974;28;19936;-70
2024/03/04 10:46:22;;;;;;;;;;;;;;;8.01;100.00;95833.03;5047136;28;20008;-70
2024/03/04 10:48:48;;;;;;;;;;;;;;;8.00;100.00;95837.47;5047747;28;19943;-70
2024/03/04 10:51:15;;;;;;;;;;;;;;;7.98;100.00;95834.28;5046439;28;20220;-70
2024/03/04 10:53:44;;;;;;;;;;;;;;;7.97;100.00;95840.50;5064783;28;19957;-70
2024/03/04 10:56:16;;;;;;;;;;;;;;;7.97;100.00;95845.72;5064743;28;19942;-69
2024/03/04 10:58:43;;;;;;;;;;;;;;;7.95;100.00;95850.38;5064751;28;19935;-72
2024/03/04 11:01:17;;;;;;;;;;;;;;;7.93;100.00;95847.97;5065163;28;19934;-73
2024/03/04 11:03:47;;;;;;;;;;;;;;;7.93;100.00;95847.97;5046928;28;19943;-79
2024/03/04 11:06:18;;;;;;;;;;;;;;;7.95;100.00;95857.41;5047689;28;20000;-78
2024/03/04 11:08:52;;;;;;;;;;;;;;;7.96;100.00;95853.75;5065080;28;19958;-79
2024/03/04 11:11:23;;;;;;;;;;;;;;;7.95;100.00;95852.97;5047427;28;19987;-78
2024/03/04 11:14:08;;;;;;;;;;;;;;;7.92;100.00;95853.41;5065254;28;19950;-78
2024/03/04 11:16:40;;;;;;;;;;;;;;;7.87;100.00;95845.41;5064885;28;19940;-79
2024/03/04 11:19:19;;;;;;;;;;;;;;;7.89;100.00;95841.56;5046476;28;19935;-79
2024/03/04 11:21:46;;;;;;;;;;;;;;;7.94;100.00;95848.78;5064806;28;19934;-74
2024/03/04 11:24:13;;;;;;;;;;;;;;;7.97;100.00;95844.94;5029869;28;20228;-74
2024/03/04 11:26:40;;;;;;;;;;;;;;;7.99;100.00;95837.69;5046929;28;19956;-74
2024/03/04 11:29:07;;;;;;;;;;;;;;;8.06;100.00;95843.63;5064835;28;19942;-74
2024/03/04 11:31:33;;;;;;;;;;;;;;;8.11;100.00;95843.78;5064441;28;19942;-74
2024/03/04 11:34:05;;;;;;;;;;;;;;;8.17;100.00;95839.50;5064544;28;20252;-74
2024/03/04 11:36:33;;;;;;;;;;;;;;;8.23;100.00;95846.47;5064488;28;19968;-77
2024/03/04 11:39:02;;;;;;;;;;;;;;;8.27;100.00;95831.97;5064573;28;19934;-73
2024/03/04 11:41:44;;;;;;;;;;;;;;;8.31;100.00;95844.34;5064526;28;19946;-74
2024/03/04 11:44:10;;;;;;;;;;;;;;;8.38;100.00;95838.25;5046096;28;20033;-74
2024/03/04 11:46:40;;;;;;;;;;;;;;;8.40;100.00;95834.44;5064656;28;19958;-74
2024/03/04 11:49:25;;;;;;;;;;;;;;;8.41;100.00;95840.47;5046201;28;19937;-73
2024/03/04 11:52:02;;;;;;;;;;;;;;;8.41;100.00;95843.09;5064375;28;19947;-74
2024/03/04 11:54:34;;;;;;;;;;;;;;;8.45;100.00;95831.19;5046945;28;20217;-71
2024/03/04 11:57:04;;;;;;;;;;;;;;;8.45;100.00;95834.59;5064061;28;19935;-77
2024/03/04 11:59:30;;;;;;;;;;;;;;;8.46;100.00;95827.53;5063813;28;19944;-77
2024/03/04 12:01:56;;;;;;;;;;;;;;;8.53;100.00;95838.75;5063779;28;19937;-77
2024/03/04 12:04:23;;;;;;;;;;;;;;;8.62;100.00;95836.63;5069780;28;19956;-77
2024/03/04 12:06:49;;;;;;;;;;;;;;;8.68;100.00;95833.91;5070298;28;19956;-77
2024/03/04 12:09:15;;;;;;;;;;;;;;;8.71;100.00;95830.88;5070373;28;20284;-77
2024/03/04 12:11:41;;;;;;;;;;;;;;;8.73;100.00;95826.22;5070897;28;20008;-77
2024/03/04 12:14:08;;;;;;;;;;;;;;;8.74;100.00;95825.19;5070318;28;19972;-71
2024/03/04 12:16:34;;;;;;;;;;;;;;;8.76;100.00;95824.97;5071202;28;20238;-78
2024/03/04 12:19:00;;;;;;;;;;;;;;;8.74;100.00;95832.25;5052317;28;19973;-77
2024/03/04 12:21:28;;;;;;;;;;;;;;;8.71;100.00;95835.28;5070771;28;19935;-80
2024/03/04 12:23:55;;;;;;;;;;;;;;;8.71;100.00;95832.66;5070499;28;19941;-77
2024/03/04 12:26:21;;;;;;;;;;;;;;;8.68;100.00;95833.91;5070199;28;19966;-78
2024/03/04 12:28:59;;;;;;;;;;;;;;;8.66;100.00;95837.78;5070226;28;20179;-78
2024/03/04 12:31:26;;;;;;;;;;;;;;;8.59;100.00;95844.88;5070184;28;19947;-69
2024/03/04 12:33:58;;;;;;;;;;;;;;;8.56;100.00;95842.72;5070700;28;19947;-78
2024/03/04 12:36:24;;;;;;;;;;;;;;;8.52;100.00;95843.16;5070250;28;20152;-77
2024/03/04 12:38:51;;;;;;;;;;;;;;;8.46;100.00;95841.44;5070958;28;19946;-78
2024/03/04 12:41:20;;;;;;;;;;;;;;;8.44;100.00;95842.66;5070103;28;20221;-77
2024/03/04 12:43:48;;;;;;;;;;;;;;;8.43;100.00;95848.91;5070932;28;19967;-78
2024/03/04 12:46:14;;;;;;;;;;;;;;;8.40;100.00;95850.13;5070015;28;19948;-78